sensor_id;sensor_type;location;lat;lon;timestamp;pressure;altitude;pressure_sealevel;temperature;humidity
6218;BME280;3142;48.206;11.550;2023-05-01T00:00:55;95637.69;;;12.27;58.25
6218;BME280;3142;48.206;11.550;2023-05-01T00:03:21;95636.34;;;12.18;58.40
6218;BME280;3142;48.206;11.550;2023-05-01T00:05:48;95623.06;;;12.12;58.40
6218;BME280;3142;48.206;11.550;2023-05-01T00:08:15;95624.66;;;12.13;59.03
6218;BME280;3142;48.206;11.550;2023-05-01T00:10:42;95629.13;;;12.13;59.07
6218;BME280;3142;48.206;11.550;2023-05-01T00:13:08;95626.69;;;12.11;59.51
6218;BME280;3142;48.206;11.550;2023-05-01T00:15:34;95614.00;;;12.08;58.88
6218;BME280;3142;48.206;11.550;2023-05-01T00:18:01;95623.09;;;12.06;59.40
6218;BME280;3142;48.206;11.550;2023-05-01T00:20:28;95613.06;;;11.96;59.23
6218;BME280;3142;48.206;11.550;2023-05-01T00:22:55;95610.25;;;11.98;59.08
6218;BME280;3142;48.206;11.550;2023-05-01T00:25:23;95610.03;;;11.99;59.54
6218;BME280;3142;48.206;11.550;2023-05-01T00:27:49;95603.00;;;11.93;59.91
6218;BME280;3142;48.206;11.550;2023-05-01T00:30:16;95608.66;;;11.90;60.10
6218;BME280;3142;48.206;11.550;2023-05-01T00:32:42;95595.38;;;11.85;59.95
6218;BME280;3142;48.206;11.550;2023-05-01T00:35:08;95599.81;;;11.84;60.37
6218;BME280;3142;48.206;11.550;2023-05-01T00:37:35;95600.84;;;11.83;60.18
6218;BME280;3142;48.206;11.550;2023-05-01T00:40:02;95596.34;;;11.91;59.77
6218;BME280;3142;48.206;11.550;2023-05-01T00:42:34;95593.66;;;12.04;60.00
6218;BME280;3142;48.206;11.550;2023-05-01T00:45:01;95588.81;;;12.07;59.40
6218;BME280;3142;48.206;11.550;2023-05-01T00:47:28;95588.88;;;11.94;60.35
6218;BME280;3142;48.206;11.550;2023-05-01T00:49:54;95586.63;;;11.98;59.77
6218;BME280;3142;48.206;11.550;2023-05-01T00:52:22;95582.63;;;11.95;60.30
6218;BME280;3142;48.206;11.550;2023-05-01T00:54:49;95583.44;;;11.96;60.30
6218;BME280;3142;48.206;11.550;2023-05-01T00:57:16;95583.00;;;11.99;60.44
6218;BME280;3142;48.206;11.550;2023-05-01T00:59:44;95586.22;;;12.01;59.70
6218;BME280;3142;48.206;11.550;2023-05-01T01:02:10;95587.22;;;12.06;60.49
6218;BME280;3142;48.206;11.550;2023-05-01T01:04:38;95585.53;;;12.12;59.79
6218;BME280;3142;48.206;11.550;2023-05-01T01:07:09;95577.81;;;12.24;59.47
6218;BME280;3142;48.206;11.550;2023-05-01T01:09:41;95578.59;;;12.24;59.85
6218;BME280;3142;48.206;11.550;2023-05-01T01:12:20;95577.75;;;12.30;59.35
6218;BME280;3142;48.206;11.550;2023-05-01T01:14:56;95577.50;;;12.38;58.63
6218;BME280;3142;48.206;11.550;2023-05-01T01:17:43;95579.81;;;12.46;58.16
6218;BME280;3142;48.206;11.550;2023-05-01T01:20:29;95575.19;;;12.49;58.18
6218;BME280;3142;48.206;11.550;2023-05-01T01:23:04;95578.00;;;12.47;58.94
6218;BME280;3142;48.206;11.550;2023-05-01T01:26:02;95573.59;;;12.48;58.50
6218;BME280;3142;48.206;11.550;2023-05-01T01:29:08;95572.59;;;12.42;58.78
6218;BME280;3142;48.206;11.550;2023-05-01T01:31:49;95574.88;;;12.38;59.08
6218;BME280;3142;48.206;11.550;2023-05-01T01:34:23;95573.25;;;12.37;59.34
6218;BME280;3142;48.206;11.550;2023-05-01T01:36:59;95567.78;;;12.39;58.84
6218;BME280;3142;48.206;11.550;2023-05-01T01:39:29;95573.16;;;12.19;58.91
6218;BME280;3142;48.206;11.550;2023-05-01T01:42:05;95566.69;;;11.97;59.85
6218;BME280;3142;48.206;11.550;2023-05-01T01:44:37;95560.66;;;11.90;59.82
6218;BME280;3142;48.206;11.550;2023-05-01T01:47:07;95552.63;;;11.78;60.17
6218;BME280;3142;48.206;11.550;2023-05-01T01:49:41;95555.31;;;11.65;60.47
6218;BME280;3142;48.206;11.550;2023-05-01T01:52:09;95549.97;;;11.53;61.50
6218;BME280;3142;48.206;11.550;2023-05-01T01:54:41;95550.19;;;11.45;61.18
6218;BME280;3142;48.206;11.550;2023-05-01T01:57:10;95547.63;;;11.38;61.60
6218;BME280;3142;48.206;11.550;2023-05-01T01:59:39;95540.13;;;11.42;61.60
6218;BME280;3142;48.206;11.550;2023-05-01T02:02:06;95539.13;;;11.36;61.47
6218;BME280;3142;48.206;11.550;2023-05-01T02:04:35;95542.66;;;11.17;62.06
6218;BME280;3142;48.206;11.550;2023-05-01T02:07:03;95543.13;;;11.01;62.32
6218;BME280;3142;48.206;11.550;2023-05-01T02:09:33;95531.47;;;10.96;63.04
6218;BME280;3142;48.206;11.550;2023-05-01T02:12:01;95529.00;;;10.95;62.75
6218;BME280;3142;48.206;11.550;2023-05-01T02:14:30;95528.41;;;11.00;63.16
6218;BME280;3142;48.206;11.550;2023-05-01T02:16:57;95522.16;;;11.01;63.09
6218;BME280;3142;48.206;11.550;2023-05-01T02:19:25;95521.97;;;11.02;63.15
6218;BME280;3142;48.206;11.550;2023-05-01T02:21:53;95522.59;;;10.91;63.18
6218;BME280;3142;48.206;11.550;2023-05-01T02:24:24;95518.97;;;10.92;63.19
6218;BME280;3142;48.206;11.550;2023-05-01T02:26:53;95517.34;;;10.97;63.53
6218;BME280;3142;48.206;11.550;2023-05-01T02:29:21;95524.72;;;11.20;62.83
6218;BME280;3142;48.206;11.550;2023-05-01T02:31:49;95516.19;;;11.32;62.43
6218;BME280;3142;48.206;11.550;2023-05-01T02:34:16;95512.13;;;11.42;62.12
6218;BME280;3142;48.206;11.550;2023-05-01T02:36:42;95507.69;;;11.43;62.07
6218;BME280;3142;48.206;11.550;2023-05-01T02:39:09;95505.88;;;11.37;61.81
6218;BME280;3142;48.206;11.550;2023-05-01T02:41:38;95505.56;;;11.20;62.70
6218;BME280;3142;48.206;11.550;2023-05-01T02:44:06;95510.16;;;11.31;62.64
6218;BME280;3142;48.206;11.550;2023-05-01T02:46:36;95508.72;;;11.35;62.58
6218;BME280;3142;48.206;11.550;2023-05-01T02:49:03;95503.25;;;11.43;62.12
6218;BME280;3142;48.206;11.550;2023-05-01T02:51:31;95498.75;;;11.50;61.93
6218;BME280;3142;48.206;11.550;2023-05-01T02:53:58;95497.13;;;11.56;61.27
6218;BME280;3142;48.206;11.550;2023-05-01T02:56:25;95499.13;;;11.61;61.55
6218;BME280;3142;48.206;11.550;2023-05-01T02:58:53;95496.56;;;11.54;61.74
6218;BME280;3142;48.206;11.550;2023-05-01T03:01:20;95495.16;;;11.51;62.35
6218;BME280;3142;48.206;11.550;2023-05-01T03:03:46;95485.50;;;11.45;61.76
6218;BME280;3142;48.206;11.550;2023-05-01T03:06:13;95490.19;;;11.37;62.20
6218;BME280;3142;48.206;11.550;2023-05-01T03:08:39;95490.78;;;11.39;62.15
6218;BME280;3142;48.206;11.550;2023-05-01T03:11:06;95498.19;;;11.48;61.84
6218;BME280;3142;48.206;11.550;2023-05-01T03:13:33;95494.75;;;11.48;62.01
6218;BME280;3142;48.206;11.550;2023-05-01T03:16:01;95498.16;;;11.55;61.72
6218;BME280;3142;48.206;11.550;2023-05-01T03:18:28;95493.06;;;11.60;62.00
6218;BME280;3142;48.206;11.550;2023-05-01T03:20:55;95494.25;;;11.64;61.52
6218;BME280;3142;48.206;11.550;2023-05-01T03:23:22;95489.63;;;11.66;61.83
6218;BME280;3142;48.206;11.550;2023-05-01T03:25:48;95487.00;;;11.66;61.69
6218;BME280;3142;48.206;11.550;2023-05-01T03:28:15;95488.19;;;11.70;61.55
6218;BME280;3142;48.206;11.550;2023-05-01T03:30:42;95488.97;;;11.71;61.84
6218;BME280;3142;48.206;11.550;2023-05-01T03:33:10;95489.22;;;11.63;62.37
6218;BME280;3142;48.206;11.550;2023-05-01T03:35:36;95493.13;;;11.53;62.19
6218;BME280;3142;48.206;11.550;2023-05-01T03:38:03;95492.91;;;11.55;61.94
6218;BME280;3142;48.206;11.550;2023-05-01T03:40:30;95487.25;;;11.58;61.95
6218;BME280;3142;48.206;11.550;2023-05-01T03:42:56;95486.22;;;11.59;62.08
6218;BME280;3142;48.206;11.550;2023-05-01T03:45:22;95487.41;;;11.63;61.96
6218;BME280;3142;48.206;11.550;2023-05-01T03:47:49;95486.22;;;11.59;62.46
6218;BME280;3142;48.206;11.550;2023-05-01T03:50:17;95483.81;;;11.57;61.81
6218;BME280;3142;48.206;11.550;2023-05-01T03:52:44;95480.03;;;11.53;62.67
6218;BME280;3142;48.206;11.550;2023-05-01T03:55:10;95479.44;;;11.51;62.20
6218;BME280;3142;48.206;11.550;2023-05-01T03:57:37;95486.09;;;11.47;62.73
6218;BME280;3142;48.206;11.550;2023-05-01T04:00:04;95481.84;;;11.53;62.50
6218;BME280;3142;48.206;11.550;2023-05-01T04:02:31;95485.28;;;11.53;61.86
6218;BME280;3142;48.206;11.550;2023-05-01T04:04:57;95492.13;;;11.54;62.41
6218;BME280;3142;48.206;11.550;2023-05-01T04:07:26;95483.25;;;11.49;62.57
6218;BME280;3142;48.206;11.550;2023-05-01T04:09:52;95483.03;;;11.50;62.35
6218;BME280;3142;48.206;11.550;2023-05-01T04:12:19;95477.69;;;11.39;62.98
6218;BME280;3142;48.206;11.550;2023-05-01T04:14:45;95481.19;;;11.26;63.39
6218;BME280;3142;48.206;11.550;2023-05-01T04:17:12;95477.63;;;11.14;63.91
6218;BME280;3142;48.206;11.550;2023-05-01T04:19:38;95470.41;;;10.96;64.50
6218;BME280;3142;48.206;11.550;2023-05-01T04:22:05;95469.91;;;10.74;64.98
6218;BME280;3142;48.206;11.550;2023-05-01T04:24:33;95467.50;;;10.66;65.68
6218;BME280;3142;48.206;11.550;2023-05-01T04:27:00;95465.91;;;10.72;65.43
6218;BME280;3142;48.206;11.550;2023-05-01T04:29:27;95464.63;;;10.87;65.09
6218;BME280;3142;48.206;11.550;2023-05-01T04:31:53;95471.06;;;10.91;65.03
6218;BME280;3142;48.206;11.550;2023-05-01T04:34:20;95473.03;;;10.96;64.46
6218;BME280;3142;48.206;11.550;2023-05-01T04:36:47;95473.25;;;11.01;64.74
6218;BME280;3142;48.206;11.550;2023-05-01T04:39:13;95468.38;;;11.11;65.24
6218;BME280;3142;48.206;11.550;2023-05-01T04:41:41;95477.78;;;11.19;65.33
6218;BME280;3142;48.206;11.550;2023-05-01T04:44:07;95471.72;;;11.25;65.21
6218;BME280;3142;48.206;11.550;2023-05-01T04:46:34;95469.09;;;11.25;65.40
6218;BME280;3142;48.206;11.550;2023-05-01T04:49:00;95472.91;;;11.29;65.29
6218;BME280;3142;48.206;11.550;2023-05-01T04:51:26;95470.03;;;11.37;64.60
6218;BME280;3142;48.206;11.550;2023-05-01T04:53:53;95479.59;;;11.56;64.14
6218;BME280;3142;48.206;11.550;2023-05-01T04:56:19;95473.19;;;11.52;63.80
6218;BME280;3142;48.206;11.550;2023-05-01T04:58:47;95475.63;;;11.47;63.77
6218;BME280;3142;48.206;11.550;2023-05-01T05:01:14;95478.44;;;11.46;64.17
6218;BME280;3142;48.206;11.550;2023-05-01T05:03:40;95469.56;;;11.47;63.88
6218;BME280;3142;48.206;11.550;2023-05-01T05:06:07;95476.91;;;11.38;63.91
6218;BME280;3142;48.206;11.550;2023-05-01T05:08:33;95473.50;;;11.31;64.36
6218;BME280;3142;48.206;11.550;2023-05-01T05:11:00;95477.69;;;11.39;64.18
6218;BME280;3142;48.206;11.550;2023-05-01T05:13:27;95473.03;;;11.41;64.36
6218;BME280;3142;48.206;11.550;2023-05-01T05:15:55;95469.56;;;11.53;63.89
6218;BME280;3142;48.206;11.550;2023-05-01T05:18:21;95470.63;;;11.39;63.64
6218;BME280;3142;48.206;11.550;2023-05-01T05:20:48;95468.03;;;11.33;64.19
6218;BME280;3142;48.206;11.550;2023-05-01T05:23:14;95475.19;;;11.50;63.84
6218;BME280;3142;48.206;11.550;2023-05-01T05:25:41;95472.16;;;11.53;64.06
6218;BME280;3142;48.206;11.550;2023-05-01T05:28:07;95475.53;;;11.61;63.69
6218;BME280;3142;48.206;11.550;2023-05-01T05:30:33;95476.97;;;11.56;63.82
6218;BME280;3142;48.206;11.550;2023-05-01T05:33:02;95480.69;;;11.74;63.41
6218;BME280;3142;48.206;11.550;2023-05-01T05:35:29;95487.47;;;11.88;63.46
6218;BME280;3142;48.206;11.550;2023-05-01T05:37:55;95484.13;;;11.74;63.47
6218;BME280;3142;48.206;11.550;2023-05-01T05:40:22;95484.84;;;11.88;62.78
6218;BME280;3142;48.206;11.550;2023-05-01T05:42:49;95489.03;;;11.96;63.43
6218;BME280;3142;48.206;11.550;2023-05-01T05:45:15;95481.91;;;12.03;63.36
6218;BME280;3142;48.206;11.550;2023-05-01T05:47:42;95481.56;;;11.99;63.12
6218;BME280;3142;48.206;11.550;2023-05-01T05:50:09;95487.75;;;12.05;63.33
6218;BME280;3142;48.206;11.550;2023-05-01T05:52:36;95487.56;;;12.06;63.61
6218;BME280;3142;48.206;11.550;2023-05-01T05:55:03;95492.75;;;12.13;63.14
6218;BME280;3142;48.206;11.550;2023-05-01T05:57:29;95488.41;;;12.25;63.61
6218;BME280;3142;48.206;11.550;2023-05-01T05:59:56;95485.78;;;12.25;62.58
6218;BME280;3142;48.206;11.550;2023-05-01T06:02:22;95497.13;;;12.19;63.37
6218;BME280;3142;48.206;11.550;2023-05-01T06:04:49;95498.56;;;12.15;63.23
6218;BME280;3142;48.206;11.550;2023-05-01T06:07:17;95491.69;;;12.21;63.37
6218;BME280;3142;48.206;11.550;2023-05-01T06:09:43;95495.00;;;12.34;62.29
6218;BME280;3142;48.206;11.550;2023-05-01T06:12:10;95486.59;;;12.44;61.86
6218;BME280;3142;48.206;11.550;2023-05-01T06:14:36;95479.63;;;12.38;62.51
6218;BME280;3142;48.206;11.550;2023-05-01T06:17:04;95485.22;;;12.41;62.35
6218;BME280;3142;48.206;11.550;2023-05-01T06:19:30;95476.34;;;12.42;61.22
6218;BME280;3142;48.206;11.550;2023-05-01T06:21:57;95478.50;;;12.45;61.02
6218;BME280;3142;48.206;11.550;2023-05-01T06:24:25;95477.50;;;12.46;61.96
6218;BME280;3142;48.206;11.550;2023-05-01T06:26:51;95469.69;;;12.40;61.86
6218;BME280;3142;48.206;11.550;2023-05-01T06:29:18;95484.56;;;12.46;62.14
6218;BME280;3142;48.206;11.550;2023-05-01T06:31:44;95481.91;;;12.53;61.89
6218;BME280;3142;48.206;11.550;2023-05-01T06:34:11;95482.34;;;12.50;61.05
6218;BME280;3142;48.206;11.550;2023-05-01T06:36:38;95482.97;;;12.45;61.31
6218;BME280;3142;48.206;11.550;2023-05-01T06:39:04;95472.47;;;12.45;60.66
6218;BME280;3142;48.206;11.550;2023-05-01T06:41:32;95475.09;;;12.45;60.63
6218;BME280;3142;48.206;11.550;2023-05-01T06:44:00;95481.91;;;12.28;60.21
6218;BME280;3142;48.206;11.550;2023-05-01T06:46:26;95479.78;;;12.18;60.93
6218;BME280;3142;48.206;11.550;2023-05-01T06:48:53;95480.44;;;12.13;60.73
6218;BME280;3142;48.206;11.550;2023-05-01T06:51:19;95479.16;;;12.23;61.40
6218;BME280;3142;48.206;11.550;2023-05-01T06:53:45;95480.25;;;12.33;61.05
6218;BME280;3142;48.206;11.550;2023-05-01T06:56:12;95481.06;;;12.34;60.48
6218;BME280;3142;48.206;11.550;2023-05-01T06:58:40;95486.56;;;12.51;60.52
6218;BME280;3142;48.206;11.550;2023-05-01T07:01:06;95483.94;;;12.69;60.05
6218;BME280;3142;48.206;11.550;2023-05-01T07:03:32;95491.91;;;12.81;59.71
6218;BME280;3142;48.206;11.550;2023-05-01T07:05:59;95490.44;;;12.85;59.38
6218;BME280;3142;48.206;11.550;2023-05-01T07:08:25;95480.91;;;12.90;59.91
6218;BME280;3142;48.206;11.550;2023-05-01T07:10:52;95490.44;;;12.85;59.03
6218;BME280;3142;48.206;11.550;2023-05-01T07:13:19;95489.50;;;12.79;60.13
6218;BME280;3142;48.206;11.550;2023-05-01T07:15:46;95492.13;;;12.79;59.25
6218;BME280;3142;48.206;11.550;2023-05-01T07:18:14;95486.56;;;12.87;59.65
6218;BME280;3142;48.206;11.550;2023-05-01T07:20:41;95488.56;;;12.92;60.49
6218;BME280;3142;48.206;11.550;2023-05-01T07:23:07;95483.78;;;13.00;58.82
6218;BME280;3142;48.206;11.550;2023-05-01T07:25:34;95483.81;;;13.19;59.06
6218;BME280;3142;48.206;11.550;2023-05-01T07:28:01;95480.06;;;13.26;58.70
6218;BME280;3142;48.206;11.550;2023-05-01T07:30:29;95482.00;;;13.19;58.70
6218;BME280;3142;48.206;11.550;2023-05-01T07:32:58;95479.00;;;13.16;58.38
6218;BME280;3142;48.206;11.550;2023-05-01T07:35:25;95480.44;;;13.30;58.54
6218;BME280;3142;48.206;11.550;2023-05-01T07:37:51;95475.22;;;13.42;57.55
6218;BME280;3142;48.206;11.550;2023-05-01T07:40:19;95482.81;;;13.50;57.87
6218;BME280;3142;48.206;11.550;2023-05-01T07:42:45;95490.59;;;13.56;57.94
6218;BME280;3142;48.206;11.550;2023-05-01T07:45:12;95488.00;;;13.68;56.88
6218;BME280;3142;48.206;11.550;2023-05-01T07:47:38;95484.03;;;13.77;57.29
6218;BME280;3142;48.206;11.550;2023-05-01T07:50:08;95492.72;;;13.78;57.46
6218;BME280;3142;48.206;11.550;2023-05-01T07:52:35;95485.66;;;13.90;57.53
6218;BME280;3142;48.206;11.550;2023-05-01T07:55:01;95484.31;;;13.99;56.82
6218;BME280;3142;48.206;11.550;2023-05-01T07:57:28;95490.63;;;14.10;57.74
6218;BME280;3142;48.206;11.550;2023-05-01T07:59:58;95497.38;;;14.17;57.24
6218;BME280;3142;48.206;11.550;2023-05-01T08:02:24;95492.34;;;14.16;57.31
6218;BME280;3142;48.206;11.550;2023-05-01T08:04:51;95493.50;;;14.20;57.95
6218;BME280;3142;48.206;11.550;2023-05-01T08:07:19;95498.09;;;14.36;57.76
6218;BME280;3142;48.206;11.550;2023-05-01T08:09:45;95500.63;;;14.43;57.55
6218;BME280;3142;48.206;11.550;2023-05-01T08:12:12;95502.22;;;14.32;57.11
6218;BME280;3142;48.206;11.550;2023-05-01T08:14:38;95500.69;;;14.24;58.66
6218;BME280;3142;48.206;11.550;2023-05-01T08:17:05;95498.28;;;14.23;57.56
6218;BME280;3142;48.206;11.550;2023-05-01T08:19:32;95505.50;;;14.16;57.91
6218;BME280;3142;48.206;11.550;2023-05-01T08:21:58;95510.44;;;14.12;58.19
6218;BME280;3142;48.206;11.550;2023-05-01T08:24:26;95505.47;;;14.04;58.49
6218;BME280;3142;48.206;11.550;2023-05-01T08:26:52;95510.28;;;14.07;57.35
6218;BME280;3142;48.206;11.550;2023-05-01T08:29:19;95510.63;;;13.99;57.76
6218;BME280;3142;48.206;11.550;2023-05-01T08:31:45;95511.66;;;13.98;57.93
6218;BME280;3142;48.206;11.550;2023-05-01T08:34:12;95513.47;;;13.98;57.91
6218;BME280;3142;48.206;11.550;2023-05-01T08:36:38;95511.44;;;14.00;57.69
6218;BME280;3142;48.206;11.550;2023-05-01T08:39:04;95514.38;;;13.91;57.74
6218;BME280;3142;48.206;11.550;2023-05-01T08:41:33;95515.19;;;13.92;58.60
6218;BME280;3142;48.206;11.550;2023-05-01T08:44:01;95516.44;;;13.89;58.53
6218;BME280;3142;48.206;11.550;2023-05-01T08:46:33;95518.56;;;13.81;58.81
6218;BME280;3142;48.206;11.550;2023-05-01T08:49:03;95515.06;;;13.87;58.41
6218;BME280;3142;48.206;11.550;2023-05-01T08:51:31;95523.59;;;13.82;59.13
6218;BME280;3142;48.206;11.550;2023-05-01T08:54:00;95524.19;;;13.84;58.63
6218;BME280;3142;48.206;11.550;2023-05-01T08:56:29;95519.59;;;13.80;59.24
6218;BME280;3142;48.206;11.550;2023-05-01T08:58:59;95529.75;;;13.76;58.63
6218;BME280;3142;48.206;11.550;2023-05-01T09:01:28;95527.44;;;13.68;58.92
6218;BME280;3142;48.206;11.550;2023-05-01T09:03:57;95537.03;;;13.62;60.12
6218;BME280;3142;48.206;11.550;2023-05-01T09:06:23;95527.75;;;13.60;60.17
6218;BME280;3142;48.206;11.550;2023-05-01T09:08:52;95544.97;;;13.56;60.08
6218;BME280;3142;48.206;11.550;2023-05-01T09:11:19;95539.16;;;13.54;60.06
6218;BME280;3142;48.206;11.550;2023-05-01T09:13:45;95544.63;;;13.52;60.17
6218;BME280;3142;48.206;11.550;2023-05-01T09:16:13;95534.91;;;13.53;60.14
6218;BME280;3142;48.206;11.550;2023-05-01T09:18:40;95536.31;;;13.55;60.55
6218;BME280;3142;48.206;11.550;2023-05-01T09:21:07;95535.38;;;13.50;61.44
6218;BME280;3142;48.206;11.550;2023-05-01T09:23:33;95539.81;;;13.49;62.90
6218;BME280;3142;48.206;11.550;2023-05-01T09:26:03;95546.84;;;13.37;62.85
6218;BME280;3142;48.206;11.550;2023-05-01T09:28:41;95543.66;;;13.35;64.52
6218;BME280;3142;48.206;11.550;2023-05-01T09:31:21;95551.19;;;13.31;65.60
6218;BME280;3142;48.206;11.550;2023-05-01T09:33:52;95556.84;;;13.28;66.11
6218;BME280;3142;48.206;11.550;2023-05-01T09:36:19;95553.06;;;13.24;65.99
6218;BME280;3142;48.206;11.550;2023-05-01T09:38:46;95562.19;;;13.22;67.73
6218;BME280;3142;48.206;11.550;2023-05-01T09:41:13;95555.75;;;13.18;67.51
6218;BME280;3142;48.206;11.550;2023-05-01T09:43:40;95559.81;;;13.14;67.92
6218;BME280;3142;48.206;11.550;2023-05-01T09:46:09;95561.06;;;13.11;68.83
6218;BME280;3142;48.206;11.550;2023-05-01T09:48:37;95561.28;;;13.10;68.73
6218;BME280;3142;48.206;11.550;2023-05-01T09:51:19;95557.28;;;13.07;69.03
6218;BME280;3142;48.206;11.550;2023-05-01T09:53:46;95562.97;;;13.04;70.28
6218;BME280;3142;48.206;11.550;2023-05-01T09:56:13;95559.53;;;13.03;70.74
6218;BME280;3142;48.206;11.550;2023-05-01T09:58:39;95561.38;;;13.03;70.17
6218;BME280;3142;48.206;11.550;2023-05-01T10:01:06;95567.19;;;13.05;71.07
6218;BME280;3142;48.206;11.550;2023-05-01T10:03:33;95568.13;;;13.11;71.53
6218;BME280;3142;48.206;11.550;2023-05-01T10:06:01;95567.56;;;13.09;71.66
6218;BME280;3142;48.206;11.550;2023-05-01T10:08:43;95567.78;;;13.07;72.55
6218;BME280;3142;48.206;11.550;2023-05-01T10:11:10;95564.84;;;12.97;72.34
6218;BME280;3142;48.206;11.550;2023-05-01T10:13:36;95567.91;;;12.94;73.38
6218;BME280;3142;48.206;11.550;2023-05-01T10:16:03;95568.50;;;12.96;72.93
6218;BME280;3142;48.206;11.550;2023-05-01T10:18:32;95568.50;;;12.96;74.14
6218;BME280;3142;48.206;11.550;2023-05-01T10:21:01;95565.66;;;12.97;73.42
6218;BME280;3142;48.206;11.550;2023-05-01T10:23:28;95563.91;;;12.91;73.15
6218;BME280;3142;48.206;11.550;2023-05-01T10:25:55;95565.06;;;12.95;74.31
6218;BME280;3142;48.206;11.550;2023-05-01T10:28:23;95580.91;;;12.89;73.38
6218;BME280;3142;48.206;11.550;2023-05-01T10:30:53;95572.28;;;12.82;75.16
6218;BME280;3142;48.206;11.550;2023-05-01T10:33:21;95579.69;;;12.85;73.76
6218;BME280;3142;48.206;11.550;2023-05-01T10:35:53;95574.31;;;12.80;75.10
6218;BME280;3142;48.206;11.550;2023-05-01T10:38:25;95571.81;;;12.85;74.49
6218;BME280;3142;48.206;11.550;2023-05-01T10:40:55;95573.50;;;12.79;73.87
6218;BME280;3142;48.206;11.550;2023-05-01T10:43:23;95577.38;;;12.77;72.65
6218;BME280;3142;48.206;11.550;2023-05-01T10:45:54;95568.47;;;12.78;73.50
6218;BME280;3142;48.206;11.550;2023-05-01T10:48:58;95570.44;;;12.82;73.58
6218;BME280;3142;48.206;11.550;2023-05-01T10:51:25;95565.63;;;12.79;73.61
6218;BME280;3142;48.206;11.550;2023-05-01T10:54:22;95557.31;;;12.82;73.61
6218;BME280;3142;48.206;11.550;2023-05-01T10:56:49;95552.66;;;12.84;73.95
6218;BME280;3142;48.206;11.550;2023-05-01T10:59:16;95556.06;;;12.85;74.87
6218;BME280;3142;48.206;11.550;2023-05-01T11:01:43;95548.91;;;12.73;75.39
6218;BME280;3142;48.206;11.550;2023-05-01T11:04:45;95548.19;;;12.66;74.87
6218;BME280;3142;48.206;11.550;2023-05-01T11:07:19;95550.50;;;12.74;75.32
6218;BME280;3142;48.206;11.550;2023-05-01T11:09:47;95543.47;;;12.75;75.46
6218;BME280;3142;48.206;11.550;2023-05-01T11:12:49;95545.88;;;12.77;74.34
6218;BME280;3142;48.206;11.550;2023-05-01T11:15:31;95543.81;;;12.79;74.75
6218;BME280;3142;48.206;11.550;2023-05-01T11:17:59;95540.53;;;12.83;74.67
6218;BME280;3142;48.206;11.550;2023-05-01T11:20:46;95539.28;;;12.86;75.05
6218;BME280;3142;48.206;11.550;2023-05-01T11:23:20;95533.25;;;12.85;75.54
6218;BME280;3142;48.206;11.550;2023-05-01T11:25:49;95535.94;;;12.79;77.12
6218;BME280;3142;48.206;11.550;2023-05-01T11:28:19;95541.50;;;12.89;76.02
6218;BME280;3142;48.206;11.550;2023-05-01T11:30:47;95538.72;;;12.84;76.63
6218;BME280;3142;48.206;11.550;2023-05-01T11:33:20;95534.78;;;12.93;76.20
6218;BME280;3142;48.206;11.550;2023-05-01T11:35:55;95530.19;;;12.88;76.87
6218;BME280;3142;48.206;11.550;2023-05-01T11:38:22;95528.53;;;12.94;76.31
6218;BME280;3142;48.206;11.550;2023-05-01T11:40:53;95530.91;;;12.95;76.65
6218;BME280;3142;48.206;11.550;2023-05-01T11:43:20;95532.47;;;13.03;76.61
6218;BME280;3142;48.206;11.550;2023-05-01T11:45:51;95520.16;;;13.03;77.36
6218;BME280;3142;48.206;11.550;2023-05-01T11:48:19;95528.16;;;13.09;77.28
6218;BME280;3142;48.206;11.550;2023-05-01T11:50:46;95525.16;;;13.05;78.20
6218;BME280;3142;48.206;11.550;2023-05-01T11:53:13;95532.50;;;13.15;77.83
6218;BME280;3142;48.206;11.550;2023-05-01T11:55:40;95524.84;;;13.13;76.79
6218;BME280;3142;48.206;11.550;2023-05-01T11:58:09;95524.59;;;13.03;77.28
6218;BME280;3142;48.206;11.550;2023-05-01T12:00:37;95528.91;;;13.16;77.12
6218;BME280;3142;48.206;11.550;2023-05-01T12:03:05;95528.16;;;13.27;77.17
6218;BME280;3142;48.206;11.550;2023-05-01T12:05:33;95525.47;;;13.33;77.15
6218;BME280;3142;48.206;11.550;2023-05-01T12:08:11;95525.59;;;13.39;76.23
6218;BME280;3142;48.206;11.550;2023-05-01T12:10:40;95529.59;;;13.41;76.56
6218;BME280;3142;48.206;11.550;2023-05-01T12:13:10;95528.75;;;13.47;77.10
6218;BME280;3142;48.206;11.550;2023-05-01T12:15:40;95534.34;;;13.51;77.42
6218;BME280;3142;48.206;11.550;2023-05-01T12:18:07;95539.16;;;13.54;76.60
6218;BME280;3142;48.206;11.550;2023-05-01T12:20:38;95532.56;;;13.63;77.11
6218;BME280;3142;48.206;11.550;2023-05-01T12:23:06;95532.69;;;13.68;77.00
6218;BME280;3142;48.206;11.550;2023-05-01T12:25:35;95538.41;;;13.65;76.36
6218;BME280;3142;48.206;11.550;2023-05-01T12:28:07;95533.38;;;13.63;77.75
6218;BME280;3142;48.206;11.550;2023-05-01T12:30:36;95531.94;;;13.49;77.64
6218;BME280;3142;48.206;11.550;2023-05-01T12:33:07;95530.84;;;13.57;77.09
6218;BME280;3142;48.206;11.550;2023-05-01T12:35:34;95531.72;;;13.51;77.17
6218;BME280;3142;48.206;11.550;2023-05-01T12:38:09;95526.28;;;13.64;77.92
6218;BME280;3142;48.206;11.550;2023-05-01T12:40:37;95531.81;;;13.74;76.66
6218;BME280;3142;48.206;11.550;2023-05-01T12:43:03;95520.41;;;13.80;76.88
6218;BME280;3142;48.206;11.550;2023-05-01T12:45:38;95527.53;;;13.91;76.39
6218;BME280;3142;48.206;11.550;2023-05-01T12:48:10;95526.06;;;14.07;75.75
6218;BME280;3142;48.206;11.550;2023-05-01T12:50:37;95531.44;;;14.01;76.02
6218;BME280;3142;48.206;11.550;2023-05-01T12:53:03;95527.22;;;14.00;75.81
6218;BME280;3142;48.206;11.550;2023-05-01T12:55:31;95531.34;;;14.07;76.37
6218;BME280;3142;48.206;11.550;2023-05-01T12:58:00;95528.06;;;14.12;76.31
6218;BME280;3142;48.206;11.550;2023-05-01T13:00:26;95537.09;;;14.16;76.40
6218;BME280;3142;48.206;11.550;2023-05-01T13:03:01;95536.84;;;14.17;76.83
6218;BME280;3142;48.206;11.550;2023-05-01T13:05:28;95535.13;;;14.23;76.17
6218;BME280;3142;48.206;11.550;2023-05-01T13:07:55;95531.16;;;14.32;76.06
6218;BME280;3142;48.206;11.550;2023-05-01T13:10:29;95528.53;;;14.32;75.33
6218;BME280;3142;48.206;11.550;2023-05-01T13:12:59;95529.78;;;14.30;75.05
6218;BME280;3142;48.206;11.550;2023-05-01T13:15:25;95521.34;;;14.39;74.65
6218;BME280;3142;48.206;11.550;2023-05-01T13:17:53;95528.44;;;14.50;75.03